sensor_id;sensor_type;location;lat;lon;timestamp;P1;durP1;ratioP1;P2;durP2;ratioP2
48263;SDS011;34086;51.076;13.722;2022-09-01T00:00:17;8.35;;;6.60;;
48263;SDS011;34086;51.076;13.722;2022-09-01T00:01:22;8.32;;;6.55;;
48263;SDS011;34086;51.076;13.722;2022-09-01T00:02:26;8.35;;;6.82;;
48263;SDS011;34086;51.076;13.722;2022-09-01T00:03:27;7.50;;;6.70;;
48263;SDS011;34086;51.076;13.722;2022-09-01T00:04:28;7.57;;;6.67;;
48263;SDS011;34086;51.076;13.722;2022-09-01T00:05:31;7.45;;;6.32;;
48263;SDS011;34086;51.076;13.722;2022-09-01T00:06:32;8.65;;;6.50;;
48263;SDS011;34086;51.076;13.722;2022-09-01T00:07:33;7.93;;;6.38;;
48263;SDS011;34086;51.076;13.722;2022-09-01T00:08:34;7.22;;;6.43;;
48263;SDS011;34086;51.076;13.722;2022-09-01T00:09:35;7.78;;;6.32;;
48263;SDS011;34086;51.076;13.722;2022-09-01T00:10:36;7.53;;;6.30;;
48263;SDS011;34086;51.076;13.722;2022-09-01T00:11:41;7.85;;;6.22;;
48263;SDS011;34086;51.076;13.722;2022-09-01T00:12:44;7.28;;;6.10;;
48263;SDS011;34086;51.076;13.722;2022-09-01T00:13:48;7.68;;;6.65;;
48263;SDS011;34086;51.076;13.722;2022-09-01T00:14:52;8.77;;;6.57;;
48263;SDS011;34086;51.076;13.722;2022-09-01T00:15:53;8.65;;;6.88;;
48263;SDS011;34086;51.076;13.722;2022-09-01T00:16:54;8.70;;;6.88;;
48263;SDS011;34086;51.076;13.722;2022-09-01T00:17:55;8.82;;;6.93;;
48263;SDS011;34086;51.076;13.722;2022-09-01T00:18:56;7.70;;;6.38;;
48263;SDS011;34086;51.076;13.722;2022-09-01T00:19:57;7.32;;;6.35;;
48263;SDS011;34086;51.076;13.722;2022-09-01T00:20:58;7.60;;;6.50;;
48263;SDS011;34086;51.076;13.722;2022-09-01T00:21:58;8.90;;;6.75;;
48263;SDS011;34086;51.076;13.722;2022-09-01T00:23:00;7.35;;;6.55;;
48263;SDS011;34086;51.076;13.722;2022-09-01T00:24:01;7.13;;;6.43;;
48263;SDS011;34086;51.076;13.722;2022-09-01T00:25:02;9.65;;;6.68;;
48263;SDS011;34086;51.076;13.722;2022-09-01T00:26:05;8.68;;;6.70;;
48263;SDS011;34086;51.076;13.722;2022-09-01T00:27:05;7.22;;;6.43;;
48263;SDS011;34086;51.076;13.722;2022-09-01T00:28:06;7.30;;;6.60;;
48263;SDS011;34086;51.076;13.722;2022-09-01T00:29:07;8.88;;;7.32;;
48263;SDS011;34086;51.076;13.722;2022-09-01T00:30:08;9.32;;;7.60;;
48263;SDS011;34086;51.076;13.722;2022-09-01T00:31:09;8.30;;;7.45;;
48263;SDS011;34086;51.076;13.722;2022-09-01T00:32:10;8.10;;;7.30;;
48263;SDS011;34086;51.076;13.722;2022-09-01T00:33:11;9.57;;;7.38;;
48263;SDS011;34086;51.076;13.722;2022-09-01T00:34:13;8.38;;;7.47;;
48263;SDS011;34086;51.076;13.722;2022-09-01T00:35:15;8.68;;;7.78;;
48263;SDS011;34086;51.076;13.722;2022-09-01T00:36:17;9.63;;;7.35;;
48263;SDS011;34086;51.076;13.722;2022-09-01T00:37:19;10.07;;;7.78;;
48263;SDS011;34086;51.076;13.722;2022-09-01T00:38:19;12.43;;;8.05;;
48263;SDS011;34086;51.076;13.722;2022-09-01T00:39:20;8.75;;;7.63;;
48263;SDS011;34086;51.076;13.722;2022-09-01T00:40:21;9.57;;;7.88;;
48263;SDS011;34086;51.076;13.722;2022-09-01T00:41:22;10.57;;;7.78;;
48263;SDS011;34086;51.076;13.722;2022-09-01T00:42:24;8.93;;;7.38;;
48263;SDS011;34086;51.076;13.722;2022-09-01T00:44:47;10.73;;;7.82;;
48263;SDS011;34086;51.076;13.722;2022-09-01T00:45:48;7.78;;;7.07;;
48263;SDS011;34086;51.076;13.722;2022-09-01T00:46:51;8.25;;;7.38;;
48263;SDS011;34086;51.076;13.722;2022-09-01T00:47:54;9.50;;;7.80;;
48263;SDS011;34086;51.076;13.722;2022-09-01T00:48:57;8.63;;;7.65;;
48263;SDS011;34086;51.076;13.722;2022-09-01T00:50:05;10.55;;;7.50;;
48263;SDS011;34086;51.076;13.722;2022-09-01T00:51:08;8.55;;;7.65;;
48263;SDS011;34086;51.076;13.722;2022-09-01T00:52:16;8.35;;;7.38;;
48263;SDS011;34086;51.076;13.722;2022-09-01T00:53:20;9.35;;;7.47;;
48263;SDS011;34086;51.076;13.722;2022-09-01T00:54:23;10.00;;;7.72;;
48263;SDS011;34086;51.076;13.722;2022-09-01T00:55:29;8.90;;;7.38;;
48263;SDS011;34086;51.076;13.722;2022-09-01T00:56:32;9.07;;;7.97;;
48263;SDS011;34086;51.076;13.722;2022-09-01T00:57:34;8.88;;;7.88;;
48263;SDS011;34086;51.076;13.722;2022-09-01T00:58:35;9.25;;;7.60;;
48263;SDS011;34086;51.076;13.722;2022-09-01T00:59:38;8.32;;;7.18;;
48263;SDS011;34086;51.076;13.722;2022-09-01T01:00:48;9.20;;;7.45;;
48263;SDS011;34086;51.076;13.722;2022-09-01T01:01:51;10.55;;;8.52;;
48263;SDS011;34086;51.076;13.722;2022-09-01T01:02:52;10.02;;;8.30;;
48263;SDS011;34086;51.076;13.722;2022-09-01T01:03:54;9.13;;;8.18;;
48263;SDS011;34086;51.076;13.722;2022-09-01T01:04:56;9.05;;;8.00;;
48263;SDS011;34086;51.076;13.722;2022-09-01T01:05:59;9.80;;;7.97;;
48263;SDS011;34086;51.076;13.722;2022-09-01T01:07:04;8.80;;;7.90;;
48263;SDS011;34086;51.076;13.722;2022-09-01T01:08:07;8.60;;;7.70;;
48263;SDS011;34086;51.076;13.722;2022-09-01T01:09:08;9.88;;;7.95;;
48263;SDS011;34086;51.076;13.722;2022-09-01T01:10:10;8.57;;;7.68;;
48263;SDS011;34086;51.076;13.722;2022-09-01T01:11:14;11.50;;;8.13;;
48263;SDS011;34086;51.076;13.722;2022-09-01T01:12:18;11.55;;;8.13;;
48263;SDS011;34086;51.076;13.722;2022-09-01T01:13:19;9.60;;;8.07;;
48263;SDS011;34086;51.076;13.722;2022-09-01T01:14:21;10.38;;;8.10;;
48263;SDS011;34086;51.076;13.722;2022-09-01T01:15:22;8.68;;;7.80;;
48263;SDS011;34086;51.076;13.722;2022-09-01T01:16:23;8.70;;;7.70;;
48263;SDS011;34086;51.076;13.722;2022-09-01T01:17:26;9.45;;;7.68;;
48263;SDS011;34086;51.076;13.722;2022-09-01T01:18:26;8.50;;;7.70;;
48263;SDS011;34086;51.076;13.722;2022-09-01T01:21:05;8.63;;;7.72;;
48263;SDS011;34086;51.076;13.722;2022-09-01T01:22:31;9.15;;;7.85;;
48263;SDS011;34086;51.076;13.722;2022-09-01T01:24:01;10.48;;;7.88;;
48263;SDS011;34086;51.076;13.722;2022-09-01T01:25:10;8.63;;;7.72;;
48263;SDS011;34086;51.076;13.722;2022-09-01T01:26:12;8.52;;;7.45;;
48263;SDS011;34086;51.076;13.722;2022-09-01T01:27:14;9.48;;;8.00;;
48263;SDS011;34086;51.076;13.722;2022-09-01T01:28:20;9.35;;;7.65;;
48263;SDS011;34086;51.076;13.722;2022-09-01T01:29:30;8.50;;;7.60;;
48263;SDS011;34086;51.076;13.722;2022-09-01T01:30:33;10.52;;;7.82;;
48263;SDS011;34086;51.076;13.722;2022-09-01T01:31:36;10.30;;;7.72;;
48263;SDS011;34086;51.076;13.722;2022-09-01T01:32:37;10.10;;;7.70;;
48263;SDS011;34086;51.076;13.722;2022-09-01T01:33:42;7.93;;;7.13;;
48263;SDS011;34086;51.076;13.722;2022-09-01T01:34:46;9.90;;;7.55;;
48263;SDS011;34086;51.076;13.722;2022-09-01T01:35:48;9.80;;;7.88;;
48263;SDS011;34086;51.076;13.722;2022-09-01T01:36:50;8.23;;;7.43;;
48263;SDS011;34086;51.076;13.722;2022-09-01T01:37:51;8.93;;;7.85;;
48263;SDS011;34086;51.076;13.722;2022-09-01T01:38:53;10.23;;;7.57;;
48263;SDS011;34086;51.076;13.722;2022-09-01T01:39:58;8.75;;;7.63;;
48263;SDS011;34086;51.076;13.722;2022-09-01T01:40:59;9.27;;;8.05;;
48263;SDS011;34086;51.076;13.722;2022-09-01T01:42:00;10.95;;;7.63;;
48263;SDS011;34086;51.076;13.722;2022-09-01T01:43:01;8.75;;;7.85;;
48263;SDS011;34086;51.076;13.722;2022-09-01T01:44:03;8.70;;;7.78;;
48263;SDS011;34086;51.076;13.722;2022-09-01T01:45:05;8.48;;;7.57;;
48263;SDS011;34086;51.076;13.722;2022-09-01T01:46:08;9.15;;;7.82;;
48263;SDS011;34086;51.076;13.722;2022-09-01T01:47:12;9.57;;;7.72;;
48263;SDS011;34086;51.076;13.722;2022-09-01T01:48:13;8.35;;;7.50;;
48263;SDS011;34086;51.076;13.722;2022-09-01T01:49:15;8.10;;;7.28;;
48263;SDS011;34086;51.076;13.722;2022-09-01T01:50:23;8.98;;;7.32;;
48263;SDS011;34086;51.076;13.722;2022-09-01T01:51:27;9.05;;;7.13;;
48263;SDS011;34086;51.076;13.722;2022-09-01T01:52:30;9.68;;;7.13;;
48263;SDS011;34086;51.076;13.722;2022-09-01T01:53:33;8.93;;;7.53;;
48263;SDS011;34086;51.076;13.722;2022-09-01T01:54:34;8.98;;;7.03;;
48263;SDS011;34086;51.076;13.722;2022-09-01T01:55:36;8.65;;;7.00;;
48263;SDS011;34086;51.076;13.722;2022-09-01T01:56:38;8.13;;;6.85;;
48263;SDS011;34086;51.076;13.722;2022-09-01T01:57:41;9.60;;;7.20;;
48263;SDS011;34086;51.076;13.722;2022-09-01T01:58:48;8.43;;;6.68;;
48263;SDS011;34086;51.076;13.722;2022-09-01T01:59:56;7.47;;;6.28;;
48263;SDS011;34086;51.076;13.722;2022-09-01T02:00:57;10.18;;;6.72;;
48263;SDS011;34086;51.076;13.722;2022-09-01T02:01:58;8.40;;;6.57;;
48263;SDS011;34086;51.076;13.722;2022-09-01T02:03:02;7.45;;;6.70;;
48263;SDS011;34086;51.076;13.722;2022-09-01T02:04:04;7.88;;;6.10;;
48263;SDS011;34086;51.076;13.722;2022-09-01T02:05:08;7.32;;;6.60;;
48263;SDS011;34086;51.076;13.722;2022-09-01T02:06:11;9.27;;;6.30;;
48263;SDS011;34086;51.076;13.722;2022-09-01T02:07:14;7.10;;;6.40;;
48263;SDS011;34086;51.076;13.722;2022-09-01T02:08:16;7.30;;;6.30;;
48263;SDS011;34086;51.076;13.722;2022-09-01T02:09:19;7.20;;;6.28;;
48263;SDS011;34086;51.076;13.722;2022-09-01T02:10:23;9.38;;;6.65;;
48263;SDS011;34086;51.076;13.722;2022-09-01T02:11:24;8.45;;;6.38;;
48263;SDS011;34086;51.076;13.722;2022-09-01T02:12:26;7.18;;;6.30;;
48263;SDS011;34086;51.076;13.722;2022-09-01T02:13:27;7.50;;;6.70;;
48263;SDS011;34086;51.076;13.722;2022-09-01T02:14:31;7.93;;;6.43;;
48263;SDS011;34086;51.076;13.722;2022-09-01T02:15:33;8.43;;;6.40;;
48263;SDS011;34086;51.076;13.722;2022-09-01T02:16:41;8.23;;;6.70;;
48263;SDS011;34086;51.076;13.722;2022-09-01T02:17:42;8.02;;;6.10;;
48263;SDS011;34086;51.076;13.722;2022-09-01T02:18:46;7.22;;;6.60;;
48263;SDS011;34086;51.076;13.722;2022-09-01T02:19:47;7.45;;;6.35;;
48263;SDS011;34086;51.076;13.722;2022-09-01T02:20:48;7.20;;;6.50;;
48263;SDS011;34086;51.076;13.722;2022-09-01T02:21:50;6.97;;;6.15;;
48263;SDS011;34086;51.076;13.722;2022-09-01T02:22:55;7.10;;;6.40;;
48263;SDS011;34086;51.076;13.722;2022-09-01T02:23:57;7.75;;;6.95;;
48263;SDS011;34086;51.076;13.722;2022-09-01T02:25:00;7.10;;;6.40;;
48263;SDS011;34086;51.076;13.722;2022-09-01T02:26:01;7.18;;;6.47;;
48263;SDS011;34086;51.076;13.722;2022-09-01T02:27:02;9.60;;;7.00;;
48263;SDS011;34086;51.076;13.722;2022-09-01T02:28:04;9.25;;;6.97;;
48263;SDS011;34086;51.076;13.722;2022-09-01T02:29:10;8.48;;;7.15;;
48263;SDS011;34086;51.076;13.722;2022-09-01T02:30:18;11.95;;;7.25;;
48263;SDS011;34086;51.076;13.722;2022-09-01T02:31:19;9.57;;;7.20;;
48263;SDS011;34086;51.076;13.722;2022-09-01T02:32:20;8.13;;;7.32;;
48263;SDS011;34086;51.076;13.722;2022-09-01T02:33:22;9.40;;;7.57;;
48263;SDS011;34086;51.076;13.722;2022-09-01T02:34:25;9.63;;;7.47;;
48263;SDS011;34086;51.076;13.722;2022-09-01T02:35:28;9.05;;;7.03;;
48263;SDS011;34086;51.076;13.722;2022-09-01T02:36:37;9.70;;;7.65;;
48263;SDS011;34086;51.076;13.722;2022-09-01T02:37:44;9.35;;;7.03;;
48263;SDS011;34086;51.076;13.722;2022-09-01T02:38:48;8.23;;;7.25;;
48263;SDS011;34086;51.076;13.722;2022-09-01T02:39:51;8.05;;;6.55;;
48263;SDS011;34086;51.076;13.722;2022-09-01T02:40:52;7.78;;;6.97;;
48263;SDS011;34086;51.076;13.722;2022-09-01T02:41:53;8.43;;;7.18;;
48263;SDS011;34086;51.076;13.722;2022-09-01T02:42:59;8.25;;;7.03;;
48263;SDS011;34086;51.076;13.722;2022-09-01T02:44:01;8.32;;;7.03;;
48263;SDS011;34086;51.076;13.722;2022-09-01T02:45:04;8.20;;;6.72;;
48263;SDS011;34086;51.076;13.722;2022-09-01T02:46:14;8.13;;;6.93;;
48263;SDS011;34086;51.076;13.722;2022-09-01T02:47:16;10.27;;;6.97;;
48263;SDS011;34086;51.076;13.722;2022-09-01T02:48:17;7.70;;;6.50;;
48263;SDS011;34086;51.076;13.722;2022-09-01T02:49:19;7.68;;;6.85;;
48263;SDS011;34086;51.076;13.722;2022-09-01T02:50:27;7.30;;;6.55;;
48263;SDS011;34086;51.076;13.722;2022-09-01T02:51:28;9.75;;;6.70;;
48263;SDS011;34086;51.076;13.722;2022-09-01T02:52:28;8.13;;;7.07;;
48263;SDS011;34086;51.076;13.722;2022-09-01T02:53:37;7.70;;;6.78;;
48263;SDS011;34086;51.076;13.722;2022-09-01T02:54:39;8.90;;;6.63;;
48263;SDS011;34086;51.076;13.722;2022-09-01T02:55:41;8.55;;;6.72;;
48263;SDS011;34086;51.076;13.722;2022-09-01T02:56:43;9.20;;;6.80;;
48263;SDS011;34086;51.076;13.722;2022-09-01T02:57:48;9.07;;;7.00;;
48263;SDS011;34086;51.076;13.722;2022-09-01T02:58:50;8.77;;;6.82;;
48263;SDS011;34086;51.076;13.722;2022-09-01T02:59:51;7.35;;;6.65;;
48263;SDS011;34086;51.076;13.722;2022-09-01T03:00:52;7.95;;;6.55;;
48263;SDS011;34086;51.076;13.722;2022-09-01T03:01:54;8.57;;;6.88;;
48263;SDS011;34086;51.076;13.722;2022-09-01T03:02:57;7.65;;;6.60;;
48263;SDS011;34086;51.076;13.722;2022-09-01T03:04:01;8.15;;;6.82;;
48263;SDS011;34086;51.076;13.722;2022-09-01T03:05:04;7.85;;;7.05;;
48263;SDS011;34086;51.076;13.722;2022-09-01T03:06:06;7.32;;;6.55;;
48263;SDS011;34086;51.076;13.722;2022-09-01T03:07:09;8.18;;;6.68;;
48263;SDS011;34086;51.076;13.722;2022-09-01T03:08:10;9.70;;;7.28;;
48263;SDS011;34086;51.076;13.722;2022-09-01T03:09:15;9.02;;;7.40;;
48263;SDS011;34086;51.076;13.722;2022-09-01T03:10:18;8.45;;;7.10;;
48263;SDS011;34086;51.076;13.722;2022-09-01T03:11:21;7.63;;;6.82;;
48263;SDS011;34086;51.076;13.722;2022-09-01T03:12:24;8.65;;;7.10;;
48263;SDS011;34086;51.076;13.722;2022-09-01T03:13:25;8.05;;;7.25;;
48263;SDS011;34086;51.076;13.722;2022-09-01T03:14:28;9.55;;;7.30;;
48263;SDS011;34086;51.076;13.722;2022-09-01T03:15:29;8.07;;;7.28;;
48263;SDS011;34086;51.076;13.722;2022-09-01T03:16:30;8.68;;;7.15;;
48263;SDS011;34086;51.076;13.722;2022-09-01T03:17:31;9.32;;;7.07;;
48263;SDS011;34086;51.076;13.722;2022-09-01T03:18:32;7.65;;;6.82;;
48263;SDS011;34086;51.076;13.722;2022-09-01T03:19:33;7.53;;;6.80;;
48263;SDS011;34086;51.076;13.722;2022-09-01T03:20:40;8.75;;;6.60;;
48263;SDS011;34086;51.076;13.722;2022-09-01T03:21:45;7.47;;;6.00;;
48263;SDS011;34086;51.076;13.722;2022-09-01T03:22:52;7.20;;;6.53;;
48263;SDS011;34086;51.076;13.722;2022-09-01T03:23:56;7.38;;;6.35;;
48263;SDS011;34086;51.076;13.722;2022-09-01T03:24:57;6.70;;;6.10;;
48263;SDS011;34086;51.076;13.722;2022-09-01T03:25:58;6.93;;;6.07;;
48263;SDS011;34086;51.076;13.722;2022-09-01T03:27:01;6.90;;;5.78;;
48263;SDS011;34086;51.076;13.722;2022-09-01T03:28:03;7.35;;;5.70;;
48263;SDS011;34086;51.076;13.722;2022-09-01T03:29:05;8.20;;;6.10;;
48263;SDS011;34086;51.076;13.722;2022-09-01T03:30:06;7.30;;;6.20;;
48263;SDS011;34086;51.076;13.722;2022-09-01T03:31:07;7.38;;;5.80;;
48263;SDS011;34086;51.076;13.722;2022-09-01T03:32:08;6.82;;;5.95;;
48263;SDS011;34086;51.076;13.722;2022-09-01T03:33:09;6.25;;;5.60;;
48263;SDS011;34086;51.076;13.722;2022-09-01T03:34:13;6.45;;;5.85;;
48263;SDS011;34086;51.076;13.722;2022-09-01T03:35:26;6.65;;;6.03;;
48263;SDS011;34086;51.076;13.722;2022-09-01T03:36:29;8.52;;;6.50;;
48263;SDS011;34086;51.076;13.722;2022-09-01T03:37:32;9.95;;;6.32;;
48263;SDS011;34086;51.076;13.722;2022-09-01T03:38:33;8.25;;;6.30;;
48263;SDS011;34086;51.076;13.722;2022-09-01T03:39:36;6.93;;;5.68;;
48263;SDS011;34086;51.076;13.722;2022-09-01T03:40:38;6.63;;;5.70;;
48263;SDS011;34086;51.076;13.722;2022-09-01T03:41:39;6.30;;;5.70;;
48263;SDS011;34086;51.076;13.722;2022-09-01T03:42:41;7.97;;;6.22;;
48263;SDS011;34086;51.076;13.722;2022-09-01T03:43:43;6.45;;;5.85;;
48263;SDS011;34086;51.076;13.722;2022-09-01T03:44:45;6.28;;;5.68;;
48263;SDS011;34086;51.076;13.722;2022-09-01T03:45:48;8.65;;;6.10;;
48263;SDS011;34086;51.076;13.722;2022-09-01T03:46:49;7.07;;;6.15;;
48263;SDS011;34086;51.076;13.722;2022-09-01T03:48:00;6.50;;;5.90;;
48263;SDS011;34086;51.076;13.722;2022-09-01T03:49:08;6.85;;;5.93;;
48263;SDS011;34086;51.076;13.722;2022-09-01T03:50:16;6.93;;;6.20;;
48263;SDS011;34086;51.076;13.722;2022-09-01T03:51:20;6.78;;;6.00;;
48263;SDS011;34086;51.076;13.722;2022-09-01T03:52:22;6.70;;;6.00;;
48263;SDS011;34086;51.076;13.722;2022-09-01T03:53:31;7.65;;;6.22;;
48263;SDS011;34086;51.076;13.722;2022-09-01T03:54:37;7.00;;;6.22;;
48263;SDS011;34086;51.076;13.722;2022-09-01T03:55:37;8.18;;;6.28;;
48263;SDS011;34086;51.076;13.722;2022-09-01T03:56:39;6.97;;;5.75;;
48263;SDS011;34086;51.076;13.722;2022-09-01T03:57:42;8.65;;;5.90;;
48263;SDS011;34086;51.076;13.722;2022-09-01T03:58:43;6.25;;;5.65;;
48263;SDS011;34086;51.076;13.722;2022-09-01T03:59:46;6.93;;;5.97;;
48263;SDS011;34086;51.076;13.722;2022-09-01T04:00:55;7.78;;;5.80;;
48263;SDS011;34086;51.076;13.722;2022-09-01T04:02:00;7.35;;;5.90;;
48263;SDS011;34086;51.076;13.722;2022-09-01T04:03:04;6.68;;;6.05;;
48263;SDS011;34086;51.076;13.722;2022-09-01T04:04:07;6.25;;;5.65;;
48263;SDS011;34086;51.076;13.722;2022-09-01T04:05:07;6.88;;;6.18;;
48263;SDS011;34086;51.076;13.722;2022-09-01T04:06:09;7.30;;;6.28;;
48263;SDS011;34086;51.076;13.722;2022-09-01T04:07:10;6.97;;;5.85;;
48263;SDS011;34086;51.076;13.722;2022-09-01T04:08:11;7.63;;;6.30;;
48263;SDS011;34086;51.076;13.722;2022-09-01T04:09:13;10.07;;;6.47;;
48263;SDS011;34086;51.076;13.722;2022-09-01T04:10:20;9.13;;;6.57;;
48263;SDS011;34086;51.076;13.722;2022-09-01T04:11:24;9.57;;;6.18;;
48263;SDS011;34086;51.076;13.722;2022-09-01T04:12:26;8.05;;;6.53;;
48263;SDS011;34086;51.076;13.722;2022-09-01T04:13:31;8.02;;;6.85;;
48263;SDS011;34086;51.076;13.722;2022-09-01T04:14:35;9.63;;;6.20;;
48263;SDS011;34086;51.076;13.722;2022-09-01T04:15:39;10.20;;;6.75;;
48263;SDS011;34086;51.076;13.722;2022-09-01T04:16:42;9.13;;;6.60;;
48263;SDS011;34086;51.076;13.722;2022-09-01T04:18:02;9.45;;;7.22;;
48263;SDS011;34086;51.076;13.722;2022-09-01T04:19:10;11.27;;;7.35;;
48263;SDS011;34086;51.076;13.722;2022-09-01T04:20:20;9.38;;;7.43;;
48263;SDS011;34086;51.076;13.722;2022-09-01T04:21:22;7.65;;;6.63;;
48263;SDS011;34086;51.076;13.722;2022-09-01T04:22:23;7.65;;;6.85;;
48263;SDS011;34086;51.076;13.722;2022-09-01T04:23:29;7.72;;;6.65;;
48263;SDS011;34086;51.076;13.722;2022-09-01T04:24:40;8.93;;;6.68;;
48263;SDS011;34086;51.076;13.722;2022-09-01T04:25:44;8.18;;;6.80;;
48263;SDS011;34086;51.076;13.722;2022-09-01T04:26:46;9.88;;;7.55;;
48263;SDS011;34086;51.076;13.722;2022-09-01T04:27:49;9.60;;;8.40;;
48263;SDS011;34086;51.076;13.722;2022-09-01T04:28:55;9.75;;;8.40;;
48263;SDS011;34086;51.076;13.722;2022-09-01T04:29:56;9.73;;;7.30;;
48263;SDS011;34086;51.076;13.722;2022-09-01T04:31:07;9.63;;;7.15;;
48263;SDS011;34086;51.076;13.722;2022-09-01T04:32:11;7.97;;;7.18;;
48263;SDS011;34086;51.076;13.722;2022-09-01T04:33:14;7.75;;;7.05;;
48263;SDS011;34086;51.076;13.722;2022-09-01T04:34:16;7.53;;;6.75;;
48263;SDS011;34086;51.076;13.722;2022-09-01T04:35:17;7.72;;;6.80;;
48263;SDS011;34086;51.076;13.722;2022-09-01T04:36:23;8.10;;;6.68;;
48263;SDS011;34086;51.076;13.722;2022-09-01T04:37:26;7.75;;;6.60;;
48263;SDS011;34086;51.076;13.722;2022-09-01T04:38:30;8.65;;;6.80;;
48263;SDS011;34086;51.076;13.722;2022-09-01T04:39:34;8.80;;;6.70;;
48263;SDS011;34086;51.076;13.722;2022-09-01T04:40:38;10.02;;;7.03;;
48263;SDS011;34086;51.076;13.722;2022-09-01T04:41:43;8.45;;;6.70;;
48263;SDS011;34086;51.076;13.722;2022-09-01T04:42:49;7.90;;;6.78;;
48263;SDS011;34086;51.076;13.722;2022-09-01T04:43:50;9.30;;;6.80;;
48263;SDS011;34086;51.076;13.722;2022-09-01T04:44:55;8.25;;;6.68;;
48263;SDS011;34086;51.076;13.722;2022-09-01T04:45:56;7.72;;;6.93;;
48263;SDS011;34086;51.076;13.722;2022-09-01T04:46:58;8.95;;;6.60;;
48263;SDS011;34086;51.076;13.722;2022-09-01T04:47:59;8.63;;;6.32;;
48263;SDS011;34086;51.076;13.722;2022-09-01T04:49:04;8.77;;;6.88;;
48263;SDS011;34086;51.076;13.722;2022-09-01T04:50:09;9.65;;;6.65;;
48263;SDS011;34086;51.076;13.722;2022-09-01T04:51:39;9.48;;;6.68;;
48263;SDS011;34086;51.076;13.722;2022-09-01T04:52:44;8.27;;;6.40;;
48263;SDS011;34086;51.076;13.722;2022-09-01T04:54:00;10.38;;;6.65;;
48263;SDS011;34086;51.076;13.722;2022-09-01T04:55:03;8.55;;;7.18;;
48263;SDS011;34086;51.076;13.722;2022-09-01T04:56:05;7.35;;;6.65;;
48263;SDS011;34086;51.076;13.722;2022-09-01T04:57:12;8.57;;;6.80;;
48263;SDS011;34086;51.076;13.722;2022-09-01T04:58:14;9.90;;;6.75;;
48263;SDS011;34086;51.076;13.722;2022-09-01T04:59:17;7.95;;;6.80;;
48263;SDS011;34086;51.076;13.722;2022-09-01T05:00:25;7.68;;;6.38;;
48263;SDS011;34086;51.076;13.722;2022-09-01T05:01:30;7.82;;;6.65;;
48263;SDS011;34086;51.076;13.722;2022-09-01T05:02:43;7.85;;;6.93;;
48263;SDS011;34086;51.076;13.722;2022-09-01T05:03:46;8.27;;;6.68;;
48263;SDS011;34086;51.076;13.722;2022-09-01T05:05:08;8.55;;;6.45;;
48263;SDS011;34086;51.076;13.722;2022-09-01T05:06:17;7.55;;;6.78;;
48263;SDS011;34086;51.076;13.722;2022-09-01T05:07:27;7.85;;;6.75;;
48263;SDS011;34086;51.076;13.722;2022-09-01T05:08:29;8.75;;;6.88;;
48263;SDS011;34086;51.076;13.722;2022-09-01T05:09:32;8.98;;;6.88;;
48263;SDS011;34086;51.076;13.722;2022-09-01T05:10:56;7.93;;;6.63;;
48263;SDS011;34086;51.076;13.722;2022-09-01T05:12:26;7.88;;;6.47;;
48263;SDS011;34086;51.076;13.722;2022-09-01T05:13:27;7.60;;;6.38;;
48263;SDS011;34086;51.076;13.722;2022-09-01T05:14:32;7.57;;;6.60;;
48263;SDS011;34086;51.076;13.722;2022-09-01T05:15:33;7.28;;;6.50;;
48263;SDS011;34086;51.076;13.722;2022-09-01T05:16:34;7.80;;;7.10;;
48263;SDS011;34086;51.076;13.722;2022-09-01T05:17:36;9.45;;;6.80;;
48263;SDS011;34086;51.076;13.722;2022-09-01T05:18:38;7.53;;;6.57;;
48263;SDS011;34086;51.076;13.722;2022-09-01T05:19:40;7.03;;;6.32;;
48263;SDS011;34086;51.076;13.722;2022-09-01T05:20:44;7.60;;;6.55;;
48263;SDS011;34086;51.076;13.722;2022-09-01T05:21:46;8.82;;;6.30;;
48263;SDS011;34086;51.076;13.722;2022-09-01T05:22:48;8.18;;;6.68;;
48263;SDS011;34086;51.076;13.722;2022-09-01T05:23:50;6.97;;;6.28;;
48263;SDS011;34086;51.076;13.722;2022-09-01T05:24:51;8.65;;;6.47;;
48263;SDS011;34086;51.076;13.722;2022-09-01T05:25:52;7.00;;;6.30;;
48263;SDS011;34086;51.076;13.722;2022-09-01T05:26:54;7.28;;;6.53;;
48263;SDS011;34086;51.076;13.722;2022-09-01T05:27:55;7.15;;;6.45;;
48263;SDS011;34086;51.076;13.722;2022-09-01T05:28:59;7.07;;;6.10;;
48263;SDS011;34086;51.076;13.722;2022-09-01T05:30:02;9.75;;;6.68;;
48263;SDS011;34086;51.076;13.722;2022-09-01T05:31:07;8.05;;;6.85;;
48263;SDS011;34086;51.076;13.722;2022-09-01T05:32:09;9.27;;;6.72;;
48263;SDS011;34086;51.076;13.722;2022-09-01T05:33:12;9.65;;;7.47;;
48263;SDS011;34086;51.076;13.722;2022-09-01T05:34:16;9.35;;;6.75;;
48263;SDS011;34086;51.076;13.722;2022-09-01T05:35:25;9.93;;;7.18;;
48263;SDS011;34086;51.076;13.722;2022-09-01T05:36:27;10.02;;;7.47;;
48263;SDS011;34086;51.076;13.722;2022-09-01T05:37:30;8.45;;;6.80;;
48263;SDS011;34086;51.076;13.722;2022-09-01T05:38:35;9.45;;;7.10;;
48263;SDS011;34086;51.076;13.722;2022-09-01T05:39:36;10.93;;;7.55;;
48263;SDS011;34086;51.076;13.722;2022-09-01T05:40:39;10.05;;;7.35;;
48263;SDS011;34086;51.076;13.722;2022-09-01T05:41:41;11.23;;;7.60;;
48263;SDS011;34086;51.076;13.722;2022-09-01T05:42:42;10.68;;;7.30;;
48263;SDS011;34086;51.076;13.722;2022-09-01T05:43:44;10.13;;;7.47;;
48263;SDS011;34086;51.076;13.722;2022-09-01T05:44:48;9.13;;;7.65;;
48263;SDS011;34086;51.076;13.722;2022-09-01T05:45:49;11.98;;;8.00;;
48263;SDS011;34086;51.076;13.722;2022-09-01T05:46:51;10.70;;;7.20;;
48263;SDS011;34086;51.076;13.722;2022-09-01T05:47:52;11.85;;;7.57;;
48263;SDS011;34086;51.076;13.722;2022-09-01T05:48:54;10.55;;;7.40;;
48263;SDS011;34086;51.076;13.722;2022-09-01T05:49:56;13.68;;;7.90;;
48263;SDS011;34086;51.076;13.722;2022-09-01T05:51:03;9.85;;;8.05;;
48263;SDS011;34086;51.076;13.722;2022-09-01T05:52:06;13.57;;;7.45;;
48263;SDS011;34086;51.076;13.722;2022-09-01T05:53:09;10.77;;;6.88;;
48263;SDS011;34086;51.076;13.722;2022-09-01T05:54:17;9.40;;;6.82;;
48263;SDS011;34086;51.076;13.722;2022-09-01T05:55:22;9.13;;;6.75;;
48263;SDS011;34086;51.076;13.722;2022-09-01T05:56:27;7.35;;;6.45;;
48263;SDS011;34086;51.076;13.722;2022-09-01T05:57:29;10.43;;;6.68;;
48263;SDS011;34086;51.076;13.722;2022-09-01T05:58:34;8.45;;;6.38;;
48263;SDS011;34086;51.076;13.722;2022-09-01T05:59:35;13.05;;;7.40;;
48263;SDS011;34086;51.076;13.722;2022-09-01T06:00:45;7.82;;;6.60;;
48263;SDS011;34086;51.076;13.722;2022-09-01T06:01:51;10.85;;;7.20;;
48263;SDS011;34086;51.076;13.722;2022-09-01T06:02:52;9.27;;;7.28;;
48263;SDS011;34086;51.076;13.722;2022-09-01T06:03:57;12.70;;;7.95;;
48263;SDS011;34086;51.076;13.722;2022-09-01T06:05:03;11.52;;;8.10;;
48263;SDS011;34086;51.076;13.722;2022-09-01T06:06:05;11.93;;;7.90;;
48263;SDS011;34086;51.076;13.722;2022-09-01T06:07:11;9.05;;;7.45;;
48263;SDS011;34086;51.076;13.722;2022-09-01T06:08:16;8.90;;;7.07;;
48263;SDS011;34086;51.076;13.722;2022-09-01T06:09:17;9.90;;;7.13;;
48263;SDS011;34086;51.076;13.722;2022-09-01T06:10:19;7.32;;;6.63;;
48263;SDS011;34086;51.076;13.722;2022-09-01T06:11:21;7.28;;;6.15;;
48263;SDS011;34086;51.076;13.722;2022-09-01T06:12:24;8.55;;;6.53;;
48263;SDS011;34086;51.076;13.722;2022-09-01T06:13:26;9.68;;;7.00;;
48263;SDS011;34086;51.076;13.722;2022-09-01T06:14:27;6.90;;;6.15;;
48263;SDS011;34086;51.076;13.722;2022-09-01T06:15:28;10.02;;;7.13;;
48263;SDS011;34086;51.076;13.722;2022-09-01T06:16:31;7.22;;;6.20;;
48263;SDS011;34086;51.076;13.722;2022-09-01T06:17:32;10.45;;;7.25;;
48263;SDS011;34086;51.076;13.722;2022-09-01T06:18:35;9.45;;;7.88;;
48263;SDS011;34086;51.076;13.722;2022-09-01T06:19:38;11.35;;;7.07;;